Skip Navigation Links
Home and Info
Weather Forecast
Mountsorrel Weather
Climate Reports
Fun Stuff
Storm Chasing Pictures
Weather Tools
Me Only!
Stormchaser Mountsorrel Leicester current Weather StormChaser Mountsorrel Leicester current Weather


29 August 2014 Climate report for Mountsorrel.

 

Mountsorrel Weather Climate values are an adverage reading taken during the hour before the one displayed.

The bottom value is the Mean or Total of all the values during the day.


TimeAir TempGround TempDew PointRH%RainSun MinutesWind RunWind HiWind Dir BarometerWxWxTxt
Aug 29 2014 9:00PM 16.9 15.6 13.0 77 --- --- 9 15 SWWind direction 1007.5 Mostly Clouds Mostly Clouds
Aug 29 2014 8:00PM 17.2 16.1 12.8 75 --- 31 11 17 SWWind direction 1007.3 Mostly Clouds Mostly Clouds
Aug 29 2014 7:00PM 17.1 17.2 13.1 77 --- 21 13 16 WSWWind direction 1007.4 Mostly Clouds Mostly Clouds
Aug 29 2014 6:00PM 16.7 18.9 14.0 84 --- --- 12 17 WSWWind direction 1007.6 Half Clouds Half Clouds
Aug 29 2014 5:00PM 17.0 17.1 13.4 79 --- --- 11 19 WSWWind direction 1007.7 Mostly Clouds Mostly Clouds
Aug 29 2014 4:00PM 18.4 20.4 12.4 68 --- --- 14 19 WSWWind direction 1007.8 Mostly Clouds Mostly Clouds
Aug 29 2014 3:00PM 19.1 25.7 11.8 62 --- 1 12 17 WSWWind direction 1007.8 Half Clouds Half Clouds
Aug 29 2014 2:00PM 18.8 29.7 11.9 64 --- 3 13 20 WSWWind direction 1007.8 Half Clouds Half Clouds
Aug 29 2014 1:00PM 17.8 22.8 11.4 66 --- --- 12 19 WSWWind direction 1008.0 Mostly Clouds Mostly Clouds
Aug 29 2014 12:00PM 17.3 21.6 11.2 67 --- 2 15 20 SWWind direction 1007.9 Mostly Clouds Mostly Clouds
Aug 29 2014 11:00AM 16.7 22.1 11.5 71 --- 2 13 19 SWWind direction 1007.8 Half Clouds Half Clouds
Aug 29 2014 10:00AM 15.7 18.0 11.8 77 --- --- 14 18 SSWWind direction 1007.8 Mostly Clouds Mostly Clouds
Aug 29 2014 9:00AM 14.7 13.8 11.7 82 --- --- 11 17 SSWWind direction 1007.6 Few Clouds Few Clouds
Aug 29 2014 8:00AM 13.7 12.8 11.4 85 --- --- 9 13 SSWWind direction 1007.6 Few Clouds Few Clouds
Aug 29 2014 7:00AM 13.0 11.5 11.1 87 --- --- 8 14 SSWWind direction 1007.4 Half Clouds Half Clouds
Aug 29 2014 6:00AM 12.8 10.6 10.9 88 --- --- 9 14 SSWWind direction 1007.2 Few Clouds Few Clouds
Aug 29 2014 5:00AM 13.0 10.5 10.9 87 --- --- 7 14 SSWWind direction 1007.6 Mostly Clouds Mostly Clouds
Aug 29 2014 4:00AM 13.3 10.9 11.0 86 --- --- 7 12 SSWWind direction 1007.7
Aug 29 2014 3:00AM 13.3 10.7 10.9 84 --- --- 8 13 SSWWind direction 1007.8
Aug 29 2014 2:00AM 13.4 10.5 10.6 82 --- --- 7 12 SSWWind direction 1008.1
Aug 29 2014 1:00AM 13.9 10.6 10.1 77 --- --- 8 12 SSWWind direction 1008.2
Totals 15.7 16.5 11.8 77 0.0 01:00 223    1007.7   








The Mountsorrel Weather Station is located in Mountsorrel which is just South of Loughborough and just North of Leicester in Leicestershire.
It is maintained by Stormchaser Stuart Robinson whose passion is for all type of weather but especially the more severe types of weather such as Hurricanes, Typhoon and Tornadoes.